Time;durP1;ratioP1;P1;durP2;ratioP2;P2;SDS_P1;SDS_P2;PMS_P1;PMS_P2;Temp;Humidity;BMP_temperature;BMP_pressure;BME280_temperature;BME280_humidity;BME280_pressure;Samples;Min_cycle;Max_cycle;Signal;HPM_P1;HPM_P2
2023/06/15 00:02:11;;;;;;;8.18;3.38;;;16.10;99.90;;;;;;4988331;28;20124;-65
2023/06/15 00:04:39;;;;;;;6.75;3.00;;;16.10;99.90;;;;;;5018729;28;20049;-64
2023/06/15 00:07:05;;;;;;;5.63;3.50;;;16.00;99.90;;;;;;4998551;28;20068;-63
2023/06/15 00:09:31;;;;;;;6.88;3.28;;;16.00;99.90;;;;;;5003564;28;20598;-65
2023/06/15 00:11:56;;;;;;;9.63;3.63;;;16.00;99.90;;;;;;5007408;28;20045;-63
2023/06/15 00:14:22;;;;;;;5.35;3.10;;;16.00;99.90;;;;;;5019544;28;20130;-65
2023/06/15 00:16:52;;;;;;;6.57;3.67;;;16.00;99.90;;;;;;5001050;28;20493;-65
2023/06/15 00:19:21;;;;;;;6.38;3.70;;;15.90;99.90;;;;;;5000604;28;20510;-64
2023/06/15 00:21:48;;;;;;;5.57;3.22;;;15.90;99.90;;;;;;5000537;28;20054;-65
2023/06/15 00:24:14;;;;;;;5.55;3.70;;;15.90;99.90;;;;;;4997055;28;20103;-65
2023/06/15 00:26:42;;;;;;;8.45;3.60;;;15.80;99.90;;;;;;5007624;28;20042;-64
2023/06/15 00:29:08;;;;;;;6.18;3.47;;;15.80;99.90;;;;;;5002566;28;20415;-65
2023/06/15 00:31:35;;;;;;;7.40;3.63;;;15.80;99.90;;;;;;4998859;28;20068;-63
2023/06/15 00:34:01;;;;;;;5.53;3.50;;;15.80;99.90;;;;;;5000222;28;20406;-63
2023/06/15 00:36:27;;;;;;;7.80;3.90;;;15.80;99.90;;;;;;5017221;28;20339;-63
2023/06/15 00:38:52;;;;;;;5.22;3.70;;;15.70;99.90;;;;;;5016794;28;20182;-63
2023/06/15 00:41:18;;;;;;;7.00;3.70;;;15.80;99.90;;;;;;5020915;28;20405;-65
2023/06/15 00:43:44;;;;;;;9.77;4.10;;;15.70;99.90;;;;;;5008835;28;20148;-65
2023/06/15 00:46:10;;;;;;;6.43;3.92;;;15.70;99.90;;;;;;5000945;28;20128;-65
2023/06/15 00:48:36;;;;;;;5.18;3.50;;;15.80;99.90;;;;;;5017657;28;20069;-64
2023/06/15 00:51:03;;;;;;;4.82;3.50;;;15.80;99.90;;;;;;5001739;28;20053;-65
2023/06/15 00:53:29;;;;;;;8.80;3.83;;;15.80;99.90;;;;;;5016523;28;20486;-65
2023/06/15 00:55:57;;;;;;;4.10;3.00;;;15.80;99.90;;;;;;5017028;28;20044;-65
2023/06/15 00:58:24;;;;;;;5.55;3.90;;;15.70;99.90;;;;;;5000023;28;20037;-65
2023/06/15 01:00:53;;;;;;;12.77;4.00;;;15.70;99.90;;;;;;5015898;28;20045;-65
2023/06/15 01:03:20;;;;;;;4.57;3.40;;;15.70;99.90;;;;;;4999723;28;20498;-62
2023/06/15 01:05:57;;;;;;;7.18;3.60;;;15.70;99.90;;;;;;5016878;28;20124;-60
2023/06/15 01:08:25;;;;;;;5.20;3.47;;;15.70;99.90;;;;;;5016596;28;20030;-60
2023/06/15 01:10:53;;;;;;;6.90;3.53;;;15.70;99.90;;;;;;5001086;28;20049;-59
2023/06/15 01:13:20;;;;;;;6.75;3.63;;;15.60;99.90;;;;;;5000821;28;20118;-60
2023/06/15 01:15:49;;;;;;;9.48;4.05;;;15.60;99.90;;;;;;4997349;28;20103;-60
2023/06/15 01:18:20;;;;;;;6.20;3.78;;;15.60;99.90;;;;;;5017603;28;20044;-61
2023/06/15 01:20:48;;;;;;;8.07;3.60;;;15.60;99.90;;;;;;5015885;28;20053;-61
2023/06/15 01:23:14;;;;;;;8.85;3.67;;;15.60;99.90;;;;;;5000298;28;20131;-61
2023/06/15 01:25:53;;;;;;;8.30;3.60;;;15.60;99.90;;;;;;4997202;28;20048;-59
2023/06/15 01:28:20;;;;;;;6.30;3.88;;;15.60;99.90;;;;;;4997908;28;20186;-60
2023/06/15 01:30:52;;;;;;;8.85;4.13;;;15.60;99.90;;;;;;5014402;28;20120;-60
2023/06/15 01:33:18;;;;;;;7.43;4.18;;;15.60;99.90;;;;;;4997379;28;20603;-61
2023/06/15 01:35:44;;;;;;;6.47;4.20;;;15.50;99.90;;;;;;5015361;28;20041;-60
2023/06/15 01:38:11;;;;;;;9.60;4.22;;;15.50;99.90;;;;;;4998457;28;20034;-59
2023/06/15 01:40:38;;;;;;;7.68;3.83;;;15.40;99.90;;;;;;4998195;28;20053;-60
2023/06/15 01:43:07;;;;;;;7.50;4.07;;;15.40;99.90;;;;;;4984825;28;20048;-60
2023/06/15 01:45:35;;;;;;;6.05;4.10;;;15.40;99.90;;;;;;4997426;28;20146;-59
2023/06/15 01:48:01;;;;;;;6.45;3.83;;;15.40;99.90;;;;;;5016736;28;20029;-60
2023/06/15 01:50:28;;;;;;;6.63;4.22;;;15.40;99.90;;;;;;5018458;28;20053;-59
2023/06/15 01:52:53;;;;;;;7.43;3.58;;;15.30;99.90;;;;;;5014353;28;20053;-60
2023/06/15 01:55:19;;;;;;;6.40;3.63;;;15.30;99.90;;;;;;4999218;28;20048;-60
2023/06/15 01:57:46;;;;;;;6.93;4.40;;;15.30;99.90;;;;;;4984947;28;20034;-60
2023/06/15 02:00:12;;;;;;;6.78;3.85;;;15.30;99.90;;;;;;5017820;28;20050;-61
2023/06/15 02:02:38;;;;;;;6.88;3.78;;;15.30;99.90;;;;;;5014911;28;20379;-60
2023/06/15 02:05:07;;;;;;;7.05;4.15;;;15.20;99.90;;;;;;4999637;28;20095;-59
2023/06/15 02:07:33;;;;;;;5.97;3.75;;;15.20;99.90;;;;;;4972861;28;20056;-60
2023/06/15 02:09:59;;;;;;;7.55;3.92;;;15.20;99.90;;;;;;5013204;28;20091;-61
2023/06/15 02:12:25;;;;;;;7.63;4.10;;;15.30;99.90;;;;;;4998842;28;20044;-61
2023/06/15 02:14:50;;;;;;;5.28;4.13;;;15.20;99.90;;;;;;4999190;28;20482;-61
2023/06/15 02:17:17;;;;;;;11.10;4.20;;;15.20;99.90;;;;;;5013841;28;20095;-60
2023/06/15 02:19:46;;;;;;;6.22;3.97;;;15.20;99.90;;;;;;5013393;28;20061;-60
2023/06/15 02:22:12;;;;;;;6.15;3.92;;;15.20;99.90;;;;;;4998501;28;20128;-60
2023/06/15 02:24:38;;;;;;;9.07;4.43;;;15.10;99.90;;;;;;5009924;28;20066;-60
2023/06/15 02:27:05;;;;;;;8.48;4.30;;;15.10;99.90;;;;;;5014193;28;20501;-60
2023/06/15 02:29:30;;;;;;;5.75;3.63;;;15.10;99.90;;;;;;5017461;28;20033;-60
2023/06/15 02:31:56;;;;;;;6.53;3.65;;;15.10;99.90;;;;;;4992532;28;20034;-60
2023/06/15 02:34:22;;;;;;;8.10;4.20;;;15.10;99.90;;;;;;5013860;28;20033;-60
2023/06/15 02:36:48;;;;;;;7.28;4.32;;;15.10;99.90;;;;;;5006437;28;20045;-60
2023/06/15 02:39:15;;;;;;;10.50;4.60;;;15.10;99.90;;;;;;4995876;28;20068;-61
2023/06/15 02:41:40;;;;;;;7.20;4.47;;;15.00;99.90;;;;;;5014621;28;20038;-60
2023/06/15 02:44:07;;;;;;;6.07;4.53;;;15.00;99.90;;;;;;4993755;28;20038;-60
2023/06/15 02:46:33;;;;;;;10.18;4.28;;;15.00;99.90;;;;;;5012295;28;20049;-60
2023/06/15 02:48:59;;;;;;;7.95;4.50;;;15.00;99.90;;;;;;5012688;28;20056;-60
2023/06/15 02:51:25;;;;;;;7.13;4.65;;;15.00;99.90;;;;;;5013882;28;20041;-60
2023/06/15 02:53:50;;;;;;;7.72;5.30;;;15.00;99.90;;;;;;4996181;28;20502;-60
2023/06/15 02:56:20;;;;;;;8.43;5.05;;;14.90;99.90;;;;;;4994933;28;20566;-60
2023/06/15 02:58:56;;;;;;;9.15;4.88;;;14.80;99.90;;;;;;4998265;28;20042;-60
2023/06/15 03:01:23;;;;;;;7.35;4.60;;;14.90;99.90;;;;;;4999356;28;20100;-59
2023/06/15 03:03:52;;;;;;;9.93;5.00;;;14.90;99.90;;;;;;4996847;28;21880;-60
2023/06/15 03:06:18;;;;;;;6.82;4.63;;;14.90;99.90;;;;;;5000188;28;20506;-60
2023/06/15 03:08:44;;;;;;;8.35;4.38;;;14.90;99.90;;;;;;5001944;28;20084;-60
2023/06/15 03:11:10;;;;;;;7.72;4.80;;;14.90;99.90;;;;;;5015724;28;20045;-60
2023/06/15 03:13:36;;;;;;;6.65;4.80;;;14.90;99.90;;;;;;5007796;28;20049;-60
2023/06/15 03:16:06;;;;;;;8.80;4.65;;;14.90;99.90;;;;;;5010648;28;20038;-60
2023/06/15 03:18:32;;;;;;;8.48;4.70;;;14.80;99.90;;;;;;4984597;28;20461;-61
2023/06/15 03:20:58;;;;;;;9.38;4.78;;;14.80;99.90;;;;;;4998744;28;20049;-60
2023/06/15 03:23:24;;;;;;;8.95;5.40;;;14.80;99.90;;;;;;5015451;28;20428;-59
2023/06/15 03:25:51;;;;;;;6.43;4.32;;;14.80;99.90;;;;;;4985506;28;20113;-60
2023/06/15 03:28:22;;;;;;;7.03;4.30;;;14.80;99.90;;;;;;5012748;28;20116;-59
2023/06/15 03:30:52;;;;;;;4.88;4.38;;;14.80;99.90;;;;;;4997733;28;20124;-59
2023/06/15 03:33:21;;;;;;;8.20;4.90;;;14.80;99.90;;;;;;5011121;28;20057;-61
2023/06/15 03:35:48;;;;;;;5.75;4.30;;;14.80;99.90;;;;;;4983515;28;20033;-60
2023/06/15 03:38:15;;;;;;;8.55;4.57;;;14.80;99.90;;;;;;4993837;28;20409;-60
2023/06/15 03:40:44;;;;;;;7.03;4.72;;;14.80;99.90;;;;;;4994868;28;20077;-61
2023/06/15 03:43:11;;;;;;;7.65;5.03;;;14.80;99.90;;;;;;4980733;28;20405;-60
2023/06/15 03:45:37;;;;;;;10.90;4.80;;;14.80;99.90;;;;;;4995942;28;20112;-59
2023/06/15 03:48:03;;;;;;;8.23;4.93;;;14.70;99.90;;;;;;5012247;28;20041;-60
2023/06/15 03:50:28;;;;;;;8.00;5.20;;;14.70;99.90;;;;;;5013534;28;20124;-60
2023/06/15 03:52:54;;;;;;;6.82;4.45;;;14.70;99.90;;;;;;5008469;28;20056;-60
2023/06/15 03:55:20;;;;;;;6.13;4.88;;;14.80;99.90;;;;;;5015167;28;20033;-60
2023/06/15 03:57:47;;;;;;;6.95;4.75;;;14.80;99.90;;;;;;5015927;28;20125;-60
2023/06/15 04:00:13;;;;;;;6.03;4.40;;;14.80;99.90;;;;;;4999038;28;20038;-61
2023/06/15 04:02:39;;;;;;;10.25;4.63;;;14.70;99.90;;;;;;5012334;28;20038;-59
2023/06/15 04:05:05;;;;;;;7.53;5.38;;;14.70;99.90;;;;;;5014120;28;20466;-60
2023/06/15 04:07:31;;;;;;;8.20;5.03;;;14.70;99.90;;;;;;5017783;28;20132;-60
2023/06/15 04:09:57;;;;;;;5.10;4.00;;;14.70;99.90;;;;;;4995942;28;20049;-60
2023/06/15 04:12:23;;;;;;;10.45;4.50;;;14.70;99.90;;;;;;5014578;28;20486;-61
2023/06/15 04:14:49;;;;;;;10.93;4.68;;;14.70;99.90;;;;;;5011723;28;20481;-59
2023/06/15 04:17:15;;;;;;;9.77;4.50;;;14.80;99.90;;;;;;4991081;28;20042;-61
2023/06/15 04:19:40;;;;;;;8.27;5.30;;;14.80;99.90;;;;;;4980826;28;20128;-60
2023/06/15 04:22:06;;;;;;;8.48;4.47;;;14.80;99.90;;;;;;4995240;28;20049;-60
2023/06/15 04:24:32;;;;;;;7.43;4.65;;;14.80;99.90;;;;;;4996119;28;20081;-60
2023/06/15 04:26:59;;;;;;;6.85;4.75;;;14.90;99.90;;;;;;5017580;28;20112;-60
2023/06/15 04:29:29;;;;;;;12.02;5.57;;;14.90;99.90;;;;;;4996631;28;20565;-60
2023/06/15 04:31:57;;;;;;;10.65;5.63;;;14.90;99.90;;;;;;5015317;28;20497;-60
2023/06/15 04:34:24;;;;;;;9.60;5.88;;;14.90;99.90;;;;;;5014683;28;20049;-60
2023/06/15 04:36:50;;;;;;;8.30;5.78;;;14.90;99.90;;;;;;5013227;28;20037;-60
2023/06/15 04:39:16;;;;;;;10.88;5.97;;;14.90;99.90;;;;;;5014789;28;20075;-61
2023/06/15 04:41:42;;;;;;;9.25;5.85;;;15.00;99.90;;;;;;4981660;28;20538;-59
2023/06/15 04:44:08;;;;;;;9.55;6.20;;;15.00;99.90;;;;;;5011072;28;20061;-60
2023/06/15 04:46:36;;;;;;;8.73;5.70;;;15.00;99.90;;;;;;5015105;28;20439;-60
2023/06/15 04:49:03;;;;;;;9.57;6.22;;;15.00;99.90;;;;;;5015539;28;20041;-59
2023/06/15 04:51:30;;;;;;;9.07;5.80;;;15.10;99.90;;;;;;5015516;28;20045;-60
2023/06/15 04:53:56;;;;;;;11.25;6.10;;;15.10;99.90;;;;;;5000223;28;20113;-60
2023/06/15 04:56:22;;;;;;;8.88;5.65;;;15.10;99.90;;;;;;5014249;28;20091;-59
2023/06/15 04:58:48;;;;;;;12.88;6.00;;;15.20;99.90;;;;;;4995811;28;20179;-60
2023/06/15 05:01:15;;;;;;;11.63;5.88;;;15.20;99.90;;;;;;5008919;28;20029;-60
2023/06/15 05:03:41;;;;;;;10.15;5.93;;;15.30;99.90;;;;;;5008820;28;20037;-60
2023/06/15 05:06:07;;;;;;;10.63;5.57;;;15.30;99.90;;;;;;5006927;28;20042;-60
2023/06/15 05:08:34;;;;;;;11.50;6.15;;;15.40;99.90;;;;;;5009010;28;20056;-61
2023/06/15 05:11:01;;;;;;;8.75;5.15;;;15.40;99.90;;;;;;5015264;28;20111;-60
2023/06/15 05:13:27;;;;;;;10.95;5.55;;;15.50;99.90;;;;;;5013305;28;20037;-61
2023/06/15 05:15:53;;;;;;;11.15;5.65;;;15.50;99.90;;;;;;5013002;28;20041;-59
2023/06/15 05:18:19;;;;;;;8.95;5.22;;;15.60;99.90;;;;;;5013769;28;20045;-60
2023/06/15 05:20:45;;;;;;;12.00;5.90;;;15.60;99.90;;;;;;5011924;28;20045;-60
2023/06/15 05:23:11;;;;;;;9.52;5.00;;;15.70;99.90;;;;;;5014519;28;20078;-60
2023/06/15 05:25:37;;;;;;;12.07;5.70;;;15.80;99.90;;;;;;5001663;28;20045;-60
2023/06/15 05:28:03;;;;;;;10.45;5.20;;;15.90;99.90;;;;;;4999349;28;20054;-60
2023/06/15 05:30:29;;;;;;;10.10;5.65;;;15.90;99.90;;;;;;5008150;28;20092;-61
2023/06/15 05:32:55;;;;;;;7.35;4.82;;;16.00;99.90;;;;;;5015715;28;20045;-61
2023/06/15 05:35:22;;;;;;;13.50;5.95;;;16.10;99.90;;;;;;5014962;28;20053;-59
2023/06/15 05:37:48;;;;;;;11.43;5.28;;;16.10;99.90;;;;;;4995537;28;20390;-60
2023/06/15 05:40:14;;;;;;;8.95;4.88;;;16.20;99.90;;;;;;5012523;28;20042;-60
2023/06/15 05:42:39;;;;;;;10.73;5.15;;;16.20;99.90;;;;;;5013685;28;20033;-60
2023/06/15 05:45:05;;;;;;;7.85;5.05;;;16.30;99.90;;;;;;4991593;28;20045;-60
2023/06/15 05:47:32;;;;;;;11.68;5.03;;;16.40;99.90;;;;;;4975010;28;20048;-60
2023/06/15 05:49:58;;;;;;;12.00;5.38;;;16.40;99.90;;;;;;5011097;28;20416;-61
2023/06/15 05:52:24;;;;;;;7.43;4.97;;;16.50;99.90;;;;;;5009645;28;20052;-60
2023/06/15 05:54:50;;;;;;;11.50;4.95;;;16.60;99.90;;;;;;4993716;28;20124;-60
2023/06/15 05:57:16;;;;;;;6.72;5.10;;;16.70;99.90;;;;;;5007975;28;20124;-59
2023/06/15 05:59:43;;;;;;;13.82;4.85;;;16.80;99.90;;;;;;4989310;28;20037;-60
2023/06/15 06:02:09;;;;;;;7.03;4.85;;;16.90;99.90;;;;;;5011576;28;20040;-60
2023/06/15 06:04:35;;;;;;;5.97;4.30;;;17.00;99.90;;;;;;4993469;28;20452;-60
2023/06/15 06:07:05;;;;;;;10.00;4.60;;;17.10;99.90;;;;;;4990741;28;20038;-60
2023/06/15 06:09:32;;;;;;;9.52;4.68;;;17.20;99.90;;;;;;4990777;28;20092;-64
2023/06/15 06:11:58;;;;;;;9.38;4.07;;;17.30;99.90;;;;;;4990753;28;20076;-65
2023/06/15 06:14:25;;;;;;;5.65;3.92;;;17.40;99.90;;;;;;4981199;28;20129;-62
2023/06/15 06:16:51;;;;;;;9.90;3.28;;;17.60;99.90;;;;;;4981162;28;20445;-63
2023/06/15 06:19:17;;;;;;;11.57;4.07;;;17.70;99.90;;;;;;5000006;28;20038;-62
2023/06/15 06:21:43;;;;;;;7.70;3.95;;;17.80;99.90;;;;;;4989756;28;20100;-63
2023/06/15 06:24:09;;;;;;;7.82;3.67;;;18.00;99.90;;;;;;5001262;28;20551;-63
2023/06/15 06:26:35;;;;;;;11.00;3.72;;;18.00;99.90;;;;;;4973858;28;20049;-64
2023/06/15 06:29:01;;;;;;;6.72;3.90;;;18.20;99.90;;;;;;4999261;28;20049;-63
2023/06/15 06:31:27;;;;;;;5.80;3.53;;;18.30;99.90;;;;;;5000685;28;20087;-64
2023/06/15 06:33:53;;;;;;;6.45;3.17;;;18.40;99.90;;;;;;5000766;28;21576;-63
2023/06/15 06:36:19;;;;;;;5.85;3.58;;;18.50;99.90;;;;;;4984353;28;20033;-64
2023/06/15 06:38:44;;;;;;;5.13;2.90;;;18.60;99.90;;;;;;4966392;28;20045;-64
2023/06/15 06:41:10;;;;;;;5.55;3.22;;;18.70;99.90;;;;;;4985262;28;20040;-63
2023/06/15 06:43:36;;;;;;;8.40;3.35;;;18.90;99.70;;;;;;4968782;28;20054;-63
2023/06/15 06:46:01;;;;;;;6.95;3.22;;;19.00;99.40;;;;;;4984295;28;20561;-63
2023/06/15 06:48:27;;;;;;;6.55;3.28;;;19.10;99.10;;;;;;4969028;28;20156;-64
2023/06/15 06:50:53;;;;;;;5.93;3.30;;;19.20;98.80;;;;;;5017022;28;20437;-63
2023/06/15 06:53:19;;;;;;;6.32;3.10;;;19.30;98.20;;;;;;4980862;28;20052;-63
2023/06/15 06:55:45;;;;;;;7.30;2.78;;;19.50;97.60;;;;;;4988776;28;20044;-63
2023/06/15 06:58:11;;;;;;;8.73;3.10;;;19.50;96.90;;;;;;4980266;28;20057;-64
2023/06/15 07:00:36;;;;;;;4.13;3.00;;;19.70;96.50;;;;;;5002369;28;20041;-64
2023/06/15 07:03:02;;;;;;;3.72;2.80;;;19.80;95.90;;;;;;5000535;28;20202;-63
2023/06/15 07:05:28;;;;;;;7.38;2.95;;;19.90;95.40;;;;;;4966248;28;20044;-64
2023/06/15 07:07:54;;;;;;;5.65;3.00;;;20.00;95.00;;;;;;5003378;28;20111;-63
2023/06/15 07:10:20;;;;;;;4.68;2.85;;;20.20;94.50;;;;;;4997688;28;20195;-64
2023/06/15 07:12:46;;;;;;;9.77;2.70;;;20.30;93.60;;;;;;4989665;28;20547;-66
2023/06/15 07:15:12;;;;;;;4.78;2.60;;;20.40;92.80;;;;;;4982597;28;20069;-64
2023/06/15 07:17:37;;;;;;;11.60;3.00;;;20.50;92.20;;;;;;4999197;28;20042;-65
2023/06/15 07:20:04;;;;;;;4.32;2.80;;;20.60;91.50;;;;;;5001075;28;20040;-63
2023/06/15 07:22:30;;;;;;;6.72;2.83;;;20.70;91.20;;;;;;4995479;28;20594;-64
2023/06/15 07:24:55;;;;;;;7.93;2.42;;;20.90;90.40;;;;;;5015255;28;20056;-64
2023/06/15 07:27:21;;;;;;;4.18;2.35;;;21.00;88.20;;;;;;5017363;28;20046;-64
2023/06/15 07:29:47;;;;;;;8.00;2.75;;;21.10;86.30;;;;;;4983449;28;20060;-65
2023/06/15 07:32:14;;;;;;;5.68;2.42;;;21.20;85.50;;;;;;4986392;28;20069;-64
2023/06/15 07:34:40;;;;;;;4.30;2.50;;;21.30;84.90;;;;;;4970738;28;20045;-64
2023/06/15 07:37:06;;;;;;;6.55;2.55;;;21.40;81.40;;;;;;5001382;28;20045;-64
2023/06/15 07:39:32;;;;;;;4.70;2.40;;;21.50;80.70;;;;;;4986990;28;20067;-63
2023/06/15 07:41:58;;;;;;;7.93;2.42;;;21.60;79.50;;;;;;4989363;28;20366;-64
2023/06/15 07:44:24;;;;;;;4.03;2.40;;;21.70;79.00;;;;;;5015408;28;20050;-64
2023/06/15 07:46:50;;;;;;;8.80;2.72;;;21.80;78.20;;;;;;4983110;28;20033;-65
2023/06/15 07:49:16;;;;;;;5.25;2.53;;;21.90;77.40;;;;;;4974211;28;20046;-64
2023/06/15 07:51:41;;;;;;;5.60;2.78;;;22.00;76.60;;;;;;4991825;28;20049;-64
2023/06/15 07:54:07;;;;;;;5.63;3.08;;;22.10;75.80;;;;;;4984795;28;20422;-64
2023/06/15 07:56:33;;;;;;;8.30;2.90;;;22.20;75.40;;;;;;5002595;28;20073;-63
2023/06/15 07:58:59;;;;;;;8.48;2.85;;;22.30;75.80;;;;;;4970934;28;20036;-64
2023/06/15 08:01:25;;;;;;;10.48;2.63;;;22.40;75.50;;;;;;5002587;28;20525;-64
2023/06/15 08:03:50;;;;;;;5.60;2.70;;;22.50;74.50;;;;;;5002993;28;20042;-65
2023/06/15 08:06:16;;;;;;;4.72;2.80;;;22.50;73.00;;;;;;4985973;28;20049;-65
2023/06/15 08:08:43;;;;;;;4.60;2.63;;;22.60;72.40;;;;;;4990825;28;20042;-64
2023/06/15 08:11:09;;;;;;;5.22;2.47;;;22.70;71.40;;;;;;5001859;28;20077;-64
2023/06/15 08:13:37;;;;;;;5.57;2.65;;;22.80;71.10;;;;;;4991883;28;20053;-65
2023/06/15 08:16:05;;;;;;;7.70;2.70;;;23.00;70.90;;;;;;4984336;28;20046;-64
2023/06/15 08:18:32;;;;;;;7.78;2.65;;;23.10;69.90;;;;;;5009617;28;20038;-65
2023/06/15 08:20:57;;;;;;;8.05;2.72;;;23.20;69.50;;;;;;4999468;28;20364;-64
2023/06/15 08:23:23;;;;;;;4.88;2.58;;;23.20;69.30;;;;;;4970656;28;20058;-65
2023/06/15 08:25:52;;;;;;;8.27;3.05;;;23.30;69.40;;;;;;5015211;28;20053;-64
2023/06/15 08:28:18;;;;;;;6.20;2.55;;;23.40;69.00;;;;;;5016870;28;20064;-64
2023/06/15 08:30:44;;;;;;;6.68;2.42;;;23.60;68.90;;;;;;5003335;28;20099;-64
2023/06/15 08:33:10;;;;;;;6.65;2.30;;;23.70;67.30;;;;;;4997136;28;20037;-64
2023/06/15 08:35:36;;;;;;;12.23;2.42;;;23.80;66.70;;;;;;4981583;28;20041;-63
2023/06/15 08:38:02;;;;;;;4.80;2.50;;;23.90;66.40;;;;;;5000895;28;20113;-65
2023/06/15 08:40:27;;;;;;;6.07;2.30;;;24.00;66.00;;;;;;5001077;28;20120;-64
2023/06/15 08:42:55;;;;;;;5.72;2.35;;;24.10;66.50;;;;;;4999001;28;20172;-64
2023/06/15 08:45:21;;;;;;;8.38;2.75;;;24.20;66.40;;;;;;4999804;28;20402;-63
2023/06/15 08:47:47;;;;;;;5.88;2.67;;;24.30;65.30;;;;;;4983673;28;20052;-63
2023/06/15 08:50:12;;;;;;;3.58;2.22;;;24.40;64.10;;;;;;4972000;28;20073;-64
2023/06/15 08:52:41;;;;;;;5.50;2.50;;;24.40;63.10;;;;;;5001325;28;20131;-63
2023/06/15 08:55:09;;;;;;;5.60;2.50;;;24.60;63.10;;;;;;5000298;28;20033;-64
2023/06/15 08:57:35;;;;;;;3.85;2.63;;;24.70;63.00;;;;;;5000208;28;23678;-64
2023/06/15 09:00:09;;;;;;;4.38;2.40;;;24.80;62.80;;;;;;4984095;28;20200;-64
2023/06/15 09:02:40;;;;;;;4.95;2.40;;;24.80;61.50;;;;;;5002774;28;20526;-64
2023/06/15 09:05:06;;;;;;;5.65;2.40;;;25.00;60.90;;;;;;4999795;28;20045;-64
2023/06/15 09:07:32;;;;;;;8.02;2.60;;;25.00;61.10;;;;;;4984088;28;20045;-66
2023/06/15 09:10:11;;;;;;;4.95;2.60;;;25.10;60.10;;;;;;4985616;28;20049;-64
2023/06/15 09:12:44;;;;;;;7.05;2.67;;;25.20;60.00;;;;;;5006260;28;20041;-64
2023/06/15 09:15:12;;;;;;;6.72;2.85;;;25.30;59.90;;;;;;5002710;28;20478;-66
2023/06/15 09:17:41;;;;;;;6.90;2.70;;;25.40;59.30;;;;;;5007689;28;20072;-63
2023/06/15 09:20:07;;;;;;;4.13;2.58;;;25.50;59.60;;;;;;5000305;28;20805;-64
2023/06/15 09:22:41;;;;;;;4.38;2.35;;;25.60;59.80;;;;;;5001883;28;20068;-65
2023/06/15 09:25:16;;;;;;;4.40;2.30;;;25.70;58.60;;;;;;5019077;28;20042;-65
2023/06/15 09:27:57;;;;;;;8.00;2.67;;;25.80;59.40;;;;;;5001973;28;20064;-64
2023/06/15 09:30:30;;;;;;;8.32;2.33;;;25.90;58.60;;;;;;4989270;28;20037;-65
2023/06/15 09:32:55;;;;;;;4.30;2.50;;;25.90;58.10;;;;;;4998545;28;20046;-64
2023/06/15 09:35:24;;;;;;;3.15;2.30;;;26.00;57.70;;;;;;4985044;28;20040;-65
2023/06/15 09:37:56;;;;;;;3.15;2.40;;;26.20;58.30;;;;;;5000615;28;20041;-65
2023/06/15 09:40:28;;;;;;;7.22;2.70;;;26.30;57.20;;;;;;5000790;28;20034;-64
2023/06/15 09:42:57;;;;;;;;;;;26.40;56.70;;;;;;4990125;28;20048;-64
2023/06/15 09:45:23;;;;;;;5.32;2.78;;;26.40;57.10;;;;;;4989632;28;19917;-64
2023/06/15 09:47:55;;;;;;;6.40;2.80;;;26.40;56.80;;;;;;4999350;28;20104;-64
2023/06/15 09:50:27;;;;;;;8.40;2.65;;;26.60;57.00;;;;;;4984651;28;20042;-64
2023/06/15 09:52:54;;;;;;;6.53;2.50;;;26.70;57.20;;;;;;4999222;28;20056;-65
2023/06/15 09:55:20;;;;;;;4.07;2.40;;;26.90;55.80;;;;;;5001766;28;20044;-65
2023/06/15 09:57:46;;;;;;;6.22;3.17;;;27.00;54.70;;;;;;4984296;28;20124;-64
2023/06/15 10:00:13;;;;;;;4.50;2.50;;;27.10;54.40;;;;;;4996486;28;20038;-66
2023/06/15 10:02:39;;;;;;;3.75;2.53;;;27.20;54.30;;;;;;4982717;28;20045;-64
2023/06/15 10:05:14;;;;;;;8.45;2.42;;;27.30;55.20;;;;;;4999876;28;20176;-64
2023/06/15 10:07:46;;;;;;;4.95;2.50;;;27.50;55.00;;;;;;4998823;28;20102;-64
2023/06/15 10:10:15;;;;;;;3.92;2.30;;;27.60;54.10;;;;;;4999224;28;20046;-66
2023/06/15 10:12:45;;;;;;;6.63;2.40;;;27.60;52.60;;;;;;4998633;28;20414;-64
2023/06/15 10:15:15;;;;;;;5.72;2.40;;;27.60;50.90;;;;;;4991998;28;20030;-65
2023/06/15 10:17:46;;;;;;;4.85;2.42;;;27.60;51.30;;;;;;4967635;28;20053;-64
2023/06/15 10:20:17;;;;;;;4.38;2.40;;;27.70;51.30;;;;;;5000104;28;20486;-64
2023/06/15 10:22:50;;;;;;;6.47;2.45;;;27.70;51.10;;;;;;4999740;28;20057;-65
2023/06/15 10:25:16;;;;;;;8.43;2.25;;;27.90;51.40;;;;;;5000912;28;20045;-66
2023/06/15 10:27:45;;;;;;;4.57;2.28;;;28.00;51.50;;;;;;4999033;28;20049;-65
2023/06/15 10:30:35;;;;;;;4.10;2.28;;;28.00;50.00;;;;;;4986379;28;20954;-65
2023/06/15 10:33:20;;;;;;;4.18;2.25;;;28.00;49.00;;;;;;4990039;28;20509;-65
2023/06/15 10:36:18;;;;;;;2.83;2.20;;;28.00;49.50;;;;;;5001105;28;20120;-66
2023/06/15 10:39:12;;;;;;;4.25;2.28;;;27.90;48.10;;;;;;4992900;28;20127;-64
2023/06/15 10:41:38;;;;;;;5.43;2.22;;;27.90;48.40;;;;;;4997279;28;20037;-65
2023/06/15 10:44:05;;;;;;;4.32;2.22;;;28.00;48.10;;;;;;4982131;28;20065;-64
2023/06/15 10:46:34;;;;;;;6.20;2.40;;;28.10;48.90;;;;;;4995867;28;20077;-65
2023/06/15 10:49:05;;;;;;;2.83;2.22;;;28.30;47.50;;;;;;5002407;28;20069;-65
2023/06/15 10:51:50;;;;;;;4.65;2.25;;;28.40;46.70;;;;;;4999114;28;20045;-65
2023/06/15 10:54:29;;;;;;;4.10;2.00;;;28.50;46.70;;;;;;5000726;28;20073;-65
2023/06/15 10:56:57;;;;;;;3.65;2.13;;;28.60;46.80;;;;;;5000212;28;20048;-65
2023/06/15 10:59:41;;;;;;;6.47;2.40;;;28.80;46.90;;;;;;4999477;28;20483;-65
2023/06/15 11:02:30;;;;;;;2.65;1.80;;;29.00;46.40;;;;;;4982946;28;20161;-65
2023/06/15 11:05:08;;;;;;;3.30;1.90;;;29.10;45.50;;;;;;4988562;28;20521;-65
2023/06/15 11:07:39;;;;;;;4.45;2.13;;;29.30;43.90;;;;;;5002896;28;20521;-66
2023/06/15 11:10:22;;;;;;;6.22;2.35;;;29.40;44.30;;;;;;5021591;28;20037;-65
2023/06/15 11:13:00;;;;;;;6.07;2.13;;;29.40;43.80;;;;;;4999044;28;20061;-65
2023/06/15 11:15:32;;;;;;;3.55;2.13;;;29.50;45.20;;;;;;4989608;28;20068;-65
2023/06/15 11:18:14;;;;;;;4.30;2.13;;;29.50;44.90;;;;;;5002914;28;20862;-64
2023/06/15 11:21:00;;;;;;;2.47;1.90;;;29.60;45.50;;;;;;5004923;28;20390;-65
2023/06/15 11:23:35;;;;;;;3.28;2.17;;;29.70;44.80;;;;;;5002017;28;20053;-65
2023/06/15 11:26:01;;;;;;;4.55;2.45;;;29.70;44.30;;;;;;4971038;28;20191;-64
2023/06/15 11:28:33;;;;;;;4.55;2.22;;;29.70;44.10;;;;;;5003246;28;20585;-65
2023/06/15 11:31:00;;;;;;;6.47;2.25;;;29.60;42.90;;;;;;4989790;28;20156;-64
2023/06/15 11:33:36;;;;;;;3.90;2.13;;;29.70;42.70;;;;;;4969993;28;20056;-64
2023/06/15 11:36:04;;;;;;;4.65;2.30;;;29.70;43.60;;;;;;4996934;28;20092;-64
2023/06/15 11:38:30;;;;;;;4.88;2.50;;;29.70;44.20;;;;;;5002123;28;20072;-64
2023/06/15 11:41:04;;;;;;;7.05;2.33;;;29.60;44.40;;;;;;5002875;28;20072;-65
2023/06/15 11:43:42;;;;;;;4.53;2.40;;;29.70;44.00;;;;;;5002300;28;20099;-65
2023/06/15 11:46:20;;;;;;;3.30;2.22;;;29.70;44.60;;;;;;5003154;28;24749;-64
2023/06/15 11:48:48;;;;;;;6.78;2.20;;;29.60;44.50;;;;;;4986832;28;20042;-67
2023/06/15 11:51:14;;;;;;;6.07;2.40;;;29.70;44.50;;;;;;4997388;28;20401;-65
2023/06/15 11:53:41;;;;;;;3.80;2.22;;;29.80;44.60;;;;;;4995556;28;20132;-64
2023/06/15 11:56:08;;;;;;;3.08;2.08;;;30.00;45.00;;;;;;5000299;28;20061;-65
2023/06/15 11:58:35;;;;;;;3.10;2.42;;;30.20;45.50;;;;;;4999264;28;20133;-65
2023/06/15 12:01:01;;;;;;;6.63;2.30;;;30.40;44.90;;;;;;5015491;28;20050;-65
2023/06/15 12:03:27;;;;;;;7.03;2.58;;;30.60;44.40;;;;;;5000735;28;20548;-66
2023/06/15 12:05:57;;;;;;;6.38;2.42;;;30.70;43.70;;;;;;4979815;28;20045;-67
2023/06/15 12:08:26;;;;;;;8.48;2.15;;;30.70;43.50;;;;;;4987269;28;20049;-66
2023/06/15 12:10:53;;;;;;;6.22;2.50;;;30.80;43.60;;;;;;4995910;28;20056;-65
2023/06/15 12:13:19;;;;;;;7.93;2.40;;;30.70;44.30;;;;;;4982590;28;20069;-67
2023/06/15 12:15:46;;;;;;;7.32;2.70;;;30.60;44.00;;;;;;4998186;28;20587;-66
2023/06/15 12:18:12;;;;;;;5.90;2.45;;;30.60;44.00;;;;;;4996354;28;20192;-65
2023/06/15 12:20:38;;;;;;;5.68;2.55;;;30.60;43.50;;;;;;4985146;28;20038;-66
2023/06/15 12:23:06;;;;;;;3.63;2.38;;;30.70;43.50;;;;;;4994020;28;20057;-64
2023/06/15 12:25:41;;;;;;;5.68;2.40;;;30.80;43.90;;;;;;5004486;28;20414;-65
2023/06/15 12:28:20;;;;;;;3.20;2.30;;;30.80;43.80;;;;;;4975434;28;20136;-66
2023/06/15 12:30:47;;;;;;;5.28;2.78;;;31.00;44.10;;;;;;4996595;28;20045;-66
2023/06/15 12:33:30;;;;;;;6.75;2.45;;;31.10;44.00;;;;;;4993351;28;20042;-65
2023/06/15 12:36:01;;;;;;;9.30;2.47;;;31.10;45.20;;;;;;4982041;28;20041;-66
2023/06/15 12:38:29;;;;;;;6.65;2.50;;;31.10;44.90;;;;;;4988968;28;20075;-66
2023/06/15 12:40:56;;;;;;;6.53;2.40;;;31.10;44.80;;;;;;4993650;28;20124;-66
2023/06/15 12:43:25;;;;;;;6.82;2.72;;;31.10;44.60;;;;;;4979915;28;20049;-65
2023/06/15 12:45:52;;;;;;;4.05;2.25;;;31.20;43.80;;;;;;5008630;28;21318;-68
2023/06/15 12:48:19;;;;;;;6.63;2.80;;;31.20;43.50;;;;;;4995437;28;21105;-65
2023/06/15 12:50:45;;;;;;;4.28;2.20;;;31.40;43.10;;;;;;4990676;28;20047;-65